Airfield :
LOGIN :

Register | Disclaimer

   EN    FR    IT 

 










Legend :    VFR   Marginal VFR   IFR   Intensive IFR   Very Intensive IFR
Visi :
Ceiling :
>= 8 km
>= 3000ft
5 to 8 km
1000 to 3000 ft
1500m to 5 km
500 to 1000 ft
800 to 1500m
200 to 500 ft
< 800m
< 200 ft
Symbols :   Thunderstorms  Fog  Heavy snow  Heavy precipitations  Wind > 20 kt
SIGMETs :     Misc.  Thunderstorms  Icing  Turbulence  Mountain Waves  Volcanic Ashes







- Airport Elevation : 5600 ft
- IATA code : SMV


LSZS - Samedan

CURRENT METAR :
  • 251150Z 21011KT CAVOK 16/02 Q1019 RMK M

EXPIRED METARs :
  • 251120Z 22014KT CAVOK 16/01 Q1019 RMK L
  • 251050Z 22011KT 190V250 CAVOK 15/M00 Q1019 RMK K
  • 251020Z 21013KT CAVOK 15/02 Q1019 RMK J
  • 250950Z 21014KT CAVOK 14/02 Q1019 RMK I
  • 250920Z 21012KT CAVOK 14/02 Q1019 RMK H

TAF TAF LSZS
Valid from the 25 at 12:00 until the 25 at 21:00 UTC


251125Z 2512/2521 22012KT CAVOK TX16/2514Z
BECMG 2518/2520 VRB03KT
ATIS : +41 81 834 93 24
No reported NOTAMs for that airfield.



MET'MAP, your aeronautical weather chart ! - Copyright ORBIFLY December 2007 - Disclaimer

ORBIFLY MET'MAP TEAM :

Programming & Development : Alexandra Zaïnal
Concept & Development : Baudouin d'Aumeries
Co-Development & Prog : Marc-Olivier Méhu
Technical & hardware support : Manuel Goepfert

Contact : metmap@orbifly.com




SOURCES & CREDITS :

   NOAA